createdAt,value
2017-06-23T00:02:07.838Z,100369
2017-06-23T00:04:36.032Z,100383
2017-06-23T00:07:04.239Z,100399
2017-06-23T00:09:32.519Z,100389
2017-06-23T00:12:00.710Z,100399
2017-06-23T00:14:29.481Z,100416
2017-06-23T00:16:57.711Z,100417
2017-06-23T00:19:25.905Z,100417
2017-06-23T00:21:54.867Z,100411
2017-06-23T00:24:23.101Z,100410
2017-06-23T00:26:51.275Z,100410
2017-06-23T00:29:19.463Z,100419
2017-06-23T00:31:47.694Z,100407
2017-06-23T00:34:15.907Z,100415
2017-06-23T00:36:44.123Z,100414
2017-06-23T00:39:12.559Z,100409
2017-06-23T00:41:40.764Z,100398
2017-06-23T00:44:09.190Z,100398
2017-06-23T00:46:38.183Z,100404
2017-06-23T00:49:07.148Z,100403
2017-06-23T00:51:35.343Z,100395
2017-06-23T00:54:03.597Z,100396
2017-06-23T00:56:31.879Z,100400
2017-06-23T00:59:00.077Z,100392
2017-06-23T01:01:28.281Z,100398
2017-06-23T01:03:56.475Z,100390
2017-06-23T01:06:24.686Z,100398
2017-06-23T01:08:52.893Z,100392
2017-06-23T01:11:21.838Z,100401
2017-06-23T01:13:50.029Z,100389
2017-06-23T01:16:18.232Z,100391
2017-06-23T01:18:47.172Z,100390
2017-06-23T01:21:15.395Z,100396
2017-06-23T01:23:44.805Z,100403
2017-06-23T01:26:13.748Z,100402
2017-06-23T01:28:41.935Z,100410
2017-06-23T01:31:10.151Z,100408
2017-06-23T01:33:38.356Z,100423
2017-06-23T01:36:06.547Z,100418
2017-06-23T01:38:34.767Z,100424
2017-06-23T01:41:03.757Z,100429
2017-06-23T01:43:32.008Z,100438
2017-06-23T01:46:01.067Z,100438
2017-06-23T01:48:29.263Z,100448
2017-06-23T01:50:58.224Z,100437
2017-06-23T01:53:26.766Z,100440
2017-06-23T01:55:54.967Z,100437
2017-06-23T01:58:23.175Z,100438
2017-06-23T02:00:51.421Z,100447
2017-06-23T02:03:19.639Z,100449
2017-06-23T02:05:48.597Z,100439
2017-06-23T02:08:16.830Z,100452
2017-06-23T02:10:45.028Z,100460
2017-06-23T02:13:13.218Z,100448
2017-06-23T02:15:41.439Z,100462
2017-06-23T02:18:10.406Z,100454
2017-06-23T02:20:38.796Z,100471
2017-06-23T02:23:07.044Z,100465
2017-06-23T02:25:35.232Z,100470
2017-06-23T02:28:03.465Z,100473
2017-06-23T02:30:31.996Z,100472
2017-06-23T02:33:00.192Z,100478
2017-06-23T02:35:29.144Z,100473
2017-06-23T02:37:57.424Z,100483
2017-06-23T02:40:25.620Z,100479
2017-06-23T02:42:53.868Z,100470
2017-06-23T02:45:22.127Z,100475
2017-06-23T02:47:50.341Z,100473
2017-06-23T02:50:18.540Z,100474
2017-06-23T02:52:47.531Z,100488
2017-06-23T02:55:15.733Z,100491
2017-06-23T02:57:43.936Z,100504
2017-06-23T03:00:12.548Z,100504
2017-06-23T03:02:40.743Z,100506
2017-06-23T03:05:09.700Z,100519
2017-06-23T03:07:37.927Z,100516
2017-06-23T03:10:06.888Z,100518
2017-06-23T03:12:35.078Z,100513
2017-06-23T03:15:03.333Z,100520
2017-06-23T03:17:31.543Z,100529
2017-06-23T03:20:00.499Z,100530
2017-06-23T03:22:28.719Z,100537
2017-06-23T03:24:56.946Z,100540
2017-06-23T03:27:25.137Z,100547
2017-06-23T03:29:53.375Z,100546
2017-06-23T03:32:21.582Z,100552
2017-06-23T03:34:49.790Z,100540
2017-06-23T03:37:18.008Z,100554
2017-06-23T03:39:46.967Z,100556
2017-06-23T03:42:15.175Z,100578
2017-06-23T03:44:44.149Z,100553
2017-06-23T03:47:12.343Z,100561
2017-06-23T03:49:40.530Z,100559
2017-06-23T03:52:08.740Z,100565
2017-06-23T03:54:36.947Z,100564
2017-06-23T03:57:05.908Z,100564
2017-06-23T03:59:34.127Z,100570
2017-06-23T04:02:02.326Z,100572
2017-06-23T04:04:30.553Z,100563
2017-06-23T04:06:59.556Z,100565
2017-06-23T04:09:28.519Z,100573
2017-06-23T04:11:56.693Z,100562
2017-06-23T04:14:24.937Z,100569
2017-06-23T04:16:53.897Z,100569
2017-06-23T04:19:22.078Z,100575
2017-06-23T04:21:50.295Z,100583
2017-06-23T04:24:19.279Z,100579
2017-06-23T04:26:47.476Z,100579
2017-06-23T04:29:15.709Z,100588
2017-06-23T04:31:43.885Z,100587
2017-06-23T04:34:12.072Z,100586
2017-06-23T04:36:40.348Z,100595
2017-06-23T04:39:08.549Z,100596
2017-06-23T04:41:36.739Z,100593
2017-06-23T04:44:04.998Z,100596
2017-06-23T04:46:33.217Z,100597
2017-06-23T04:49:01.413Z,100602
2017-06-23T04:51:29.613Z,100591
2017-06-23T04:53:58.606Z,100607
2017-06-23T04:56:26.809Z,100606
2017-06-23T04:58:56.034Z,100603
2017-06-23T05:01:24.215Z,100606
2017-06-23T05:03:52.402Z,100609
2017-06-23T05:06:20.620Z,100608
2017-06-23T05:08:48.797Z,100604
2017-06-23T05:11:16.993Z,100592
2017-06-23T05:13:45.752Z,100603
2017-06-23T05:16:13.951Z,100601
2017-06-23T05:18:42.130Z,100603
2017-06-23T05:21:10.359Z,100615
2017-06-23T05:23:38.571Z,100625
2017-06-23T05:26:06.759Z,100626
2017-06-23T05:28:34.991Z,100637
2017-06-23T05:31:03.942Z,100636
2017-06-23T05:33:32.146Z,100643
2017-06-23T05:36:00.385Z,100633
2017-06-23T05:38:28.573Z,100639
2017-06-23T05:40:56.759Z,100640
2017-06-23T05:43:24.957Z,100645
2017-06-23T05:45:53.157Z,100649
2017-06-23T05:48:21.347Z,100656
2017-06-23T05:50:49.873Z,100650
2017-06-23T05:53:18.048Z,100658
2017-06-23T05:55:46.234Z,100665
2017-06-23T05:58:14.460Z,100672
2017-06-23T06:00:42.659Z,100675
2017-06-23T06:03:10.850Z,100683
2017-06-23T06:05:39.076Z,100680
2017-06-23T06:08:07.250Z,100682
2017-06-23T06:10:35.456Z,100681
2017-06-23T06:13:03.677Z,100691
2017-06-23T06:15:32.623Z,100695
2017-06-23T06:18:00.812Z,100707
2017-06-23T06:20:29.032Z,100695
2017-06-23T06:22:57.213Z,100705
2017-06-23T06:25:25.414Z,100713
2017-06-23T06:27:53.627Z,100719
2017-06-23T06:30:21.835Z,100725
2017-06-23T06:32:50.050Z,100719
2017-06-23T06:35:18.951Z,100717
2017-06-23T06:37:48.679Z,100721
2017-06-23T06:40:16.886Z,100732
2017-06-23T06:42:46.079Z,100735
2017-06-23T06:45:15.593Z,100735
2017-06-23T06:47:43.789Z,100732
2017-06-23T06:50:11.992Z,100734
2017-06-23T06:52:40.179Z,100740
2017-06-23T06:55:08.372Z,100751
2017-06-23T06:57:37.399Z,100744
2017-06-23T07:00:05.603Z,100743
2017-06-23T07:02:33.797Z,100737
2017-06-23T07:05:03.621Z,100743
2017-06-23T07:07:31.792Z,100742
2017-06-23T07:09:59.989Z,100753
2017-06-23T07:12:29.003Z,100770
2017-06-23T07:14:57.191Z,100762
2017-06-23T07:17:25.383Z,100761
2017-06-23T07:19:53.631Z,100767
2017-06-23T07:22:21.816Z,100762
2017-06-23T07:24:50.019Z,100770
2017-06-23T07:27:18.255Z,100767
2017-06-23T07:29:46.457Z,100777
2017-06-23T07:32:14.666Z,100775
2017-06-23T07:34:42.915Z,100783
2017-06-23T07:37:11.084Z,100779
2017-06-23T07:39:39.279Z,100791
2017-06-23T07:42:07.511Z,100789
2017-06-23T07:44:35.703Z,100786
2017-06-23T07:47:03.907Z,100786
2017-06-23T07:49:32.147Z,100790
2017-06-23T07:52:00.346Z,100789
2017-06-23T07:54:28.525Z,100798
2017-06-23T07:56:56.752Z,100796
2017-06-23T07:59:24.960Z,100799
2017-06-23T08:01:53.133Z,100799
2017-06-23T08:04:21.374Z,100806
2017-06-23T08:06:49.603Z,100812
2017-06-23T08:09:17.795Z,100813
2017-06-23T08:11:46.044Z,100815
2017-06-23T08:14:14.255Z,100821
2017-06-23T08:16:43.208Z,100827
2017-06-23T08:19:11.419Z,100830
2017-06-23T08:21:39.601Z,100823
2017-06-23T08:24:08.557Z,100831
2017-06-23T08:26:36.757Z,100835
2017-06-23T08:29:04.978Z,100848
2017-06-23T08:31:33.172Z,100847
2017-06-23T08:34:01.424Z,100848
2017-06-23T08:36:29.603Z,100854
2017-06-23T08:38:57.791Z,100856
2017-06-23T08:41:26.019Z,100872
2017-06-23T08:43:55.001Z,100871
2017-06-23T08:46:23.181Z,100881
2017-06-23T08:48:51.385Z,100873
2017-06-23T08:51:19.581Z,100873
2017-06-23T08:53:47.764Z,100877
2017-06-23T08:56:15.980Z,100877
2017-06-23T08:58:44.168Z,100882
2017-06-23T09:01:13.112Z,100886
2017-06-23T09:03:41.353Z,100894
2017-06-23T09:06:09.565Z,100888
2017-06-23T09:08:37.763Z,100887
2017-06-23T09:11:05.980Z,100903
2017-06-23T09:13:34.167Z,100898
2017-06-23T09:16:02.365Z,100901
2017-06-23T09:18:31.634Z,100905
2017-06-23T09:20:59.831Z,100918
2017-06-23T09:23:28.033Z,100926
2017-06-23T09:25:56.256Z,100928
2017-06-23T09:28:24.455Z,100913
2017-06-23T09:30:52.646Z,100918
2017-06-23T09:33:20.875Z,100934
2017-06-23T09:35:49.835Z,100930
2017-06-23T09:38:18.042Z,100923
2017-06-23T09:40:47.031Z,100935
2017-06-23T09:43:15.245Z,100930
2017-06-23T09:45:43.432Z,100937
2017-06-23T09:48:11.680Z,100931
2017-06-23T09:50:39.876Z,100930
2017-06-23T09:53:08.110Z,100926
2017-06-23T09:55:37.118Z,100933
2017-06-23T09:58:05.303Z,100935
2017-06-23T10:00:33.477Z,100944
2017-06-23T10:03:01.701Z,100944
2017-06-23T10:05:29.892Z,100949
2017-06-23T10:07:58.126Z,100950
2017-06-23T10:10:26.352Z,100942
2017-06-23T10:12:55.326Z,100946
2017-06-23T10:15:23.502Z,100952
2017-06-23T10:17:51.719Z,100958
2017-06-23T10:20:19.953Z,100958
2017-06-23T10:22:48.169Z,100964
2017-06-23T10:25:16.404Z,100955
2017-06-23T10:27:44.610Z,100959
2017-06-23T10:30:13.574Z,100965
2017-06-23T10:32:41.803Z,100946
2017-06-23T10:35:09.972Z,100949
2017-06-23T10:37:38.190Z,100953
2017-06-23T10:40:06.415Z,100950
2017-06-23T10:42:34.584Z,100953
2017-06-23T10:45:02.785Z,100950
2017-06-23T10:47:30.991Z,100961
2017-06-23T10:49:59.172Z,100960
2017-06-23T10:52:27.403Z,100957
2017-06-23T10:54:55.638Z,100952
2017-06-23T10:57:23.809Z,100946
2017-06-23T10:59:51.978Z,100952
2017-06-23T11:02:20.208Z,100951
2017-06-23T11:04:48.423Z,100951
2017-06-23T11:07:16.615Z,100953
2017-06-23T11:09:45.611Z,100956
2017-06-23T11:12:14.588Z,100975
2017-06-23T11:14:42.807Z,100974
2017-06-23T11:17:11.358Z,100965
2017-06-23T11:19:39.558Z,100980
2017-06-23T11:22:07.767Z,100962
2017-06-23T11:24:35.994Z,100961
2017-06-23T11:27:04.962Z,100967
2017-06-23T11:29:33.128Z,100962
2017-06-23T11:32:01.374Z,100973
2017-06-23T11:34:32.499Z,100965
2017-06-23T11:37:00.701Z,100967
2017-06-23T11:39:28.935Z,100966
2017-06-23T11:41:57.899Z,100970
2017-06-23T11:44:26.114Z,100984
2017-06-23T11:46:54.333Z,100985
2017-06-23T11:49:22.501Z,100990
2017-06-23T11:51:50.705Z,100995
2017-06-23T11:54:18.921Z,100989
2017-06-23T11:56:47.102Z,100988
2017-06-23T11:59:15.287Z,100990
2017-06-23T12:01:43.504Z,101009
2017-06-23T12:04:11.685Z,101003
2017-06-23T12:06:39.867Z,101004
2017-06-23T12:09:08.208Z,101005
2017-06-23T12:11:36.380Z,101007
2017-06-23T12:14:04.562Z,101012
2017-06-23T12:16:32.795Z,101009
2017-06-23T12:19:00.984Z,101005
2017-06-23T12:21:29.157Z,101018
2017-06-23T12:23:57.427Z,101013
2017-06-23T12:26:25.631Z,101016
2017-06-23T12:28:53.802Z,101006
2017-06-23T12:31:22.016Z,101017
2017-06-23T12:33:50.203Z,101007
2017-06-23T12:36:19.163Z,100998
2017-06-23T12:38:47.378Z,101001
2017-06-23T12:41:16.327Z,101006
2017-06-23T12:43:44.504Z,101012
2017-06-23T12:46:12.724Z,101002
2017-06-23T12:48:41.663Z,101012
2017-06-23T12:51:09.840Z,101010
2017-06-23T12:53:38.070Z,101010
2017-06-23T12:56:07.044Z,101014
2017-06-23T12:58:35.239Z,101011
2017-06-23T13:01:04.226Z,101011
2017-06-23T13:03:33.188Z,101004
2017-06-23T13:06:01.431Z,101002
2017-06-23T13:08:29.652Z,100997
2017-06-23T13:10:57.840Z,101002
2017-06-23T13:13:26.031Z,101004
2017-06-23T13:15:54.260Z,101004
2017-06-23T13:18:22.439Z,100998
2017-06-23T13:20:50.626Z,101002
2017-06-23T13:23:19.652Z,101005
2017-06-23T13:25:48.603Z,101002
2017-06-23T13:28:16.788Z,101003
2017-06-23T13:30:45.005Z,101005
2017-06-23T13:33:13.219Z,101018
2017-06-23T13:35:41.442Z,100999
2017-06-23T13:38:10.437Z,101007
2017-06-23T13:40:39.374Z,101009
2017-06-23T13:43:07.578Z,101011
2017-06-23T13:45:35.799Z,101005
2017-06-23T13:48:03.987Z,101005
2017-06-23T13:50:32.195Z,101002
2017-06-23T13:53:00.433Z,101008
2017-06-23T13:55:28.626Z,101000
2017-06-23T13:57:56.788Z,101006
2017-06-23T14:00:25.043Z,100995
2017-06-23T14:02:53.227Z,100989
2017-06-23T14:05:21.408Z,100996
2017-06-23T14:07:49.628Z,101009
2017-06-23T14:10:17.798Z,101011
2017-06-23T14:12:45.984Z,101028
2017-06-23T14:15:14.206Z,101024
2017-06-23T14:17:42.406Z,101028
2017-06-23T14:20:10.587Z,101026
2017-06-23T14:22:38.807Z,101021
2017-06-23T14:25:07.785Z,101025
2017-06-23T14:27:35.971Z,101019
2017-06-23T14:30:04.965Z,101030
2017-06-23T14:32:33.897Z,101019
2017-06-23T14:35:02.106Z,101019
2017-06-23T14:37:30.406Z,101023
2017-06-23T14:39:59.360Z,101024
2017-06-23T14:42:27.567Z,101025
2017-06-23T14:44:55.790Z,101019
2017-06-23T14:47:23.975Z,101030
2017-06-23T14:49:52.158Z,101020
2017-06-23T14:52:20.388Z,101021
2017-06-23T14:54:49.349Z,101016
2017-06-23T14:57:17.532Z,101010
2017-06-23T14:59:45.795Z,101017
2017-06-23T15:02:13.983Z,101018
2017-06-23T15:04:42.145Z,101018
2017-06-23T15:07:10.367Z,101023
2017-06-23T15:09:38.560Z,101021
2017-06-23T15:12:06.762Z,101031
2017-06-23T15:14:34.994Z,101026
2017-06-23T15:17:03.187Z,101037
2017-06-23T15:19:31.372Z,101024
2017-06-23T15:21:59.590Z,101030
2017-06-23T15:24:27.772Z,101032
2017-06-23T15:26:56.732Z,101023
2017-06-23T15:29:24.947Z,101032
2017-06-23T15:31:53.900Z,101038
2017-06-23T15:34:22.088Z,101050
2017-06-23T15:36:50.297Z,101054
2017-06-23T15:39:19.244Z,101053
2017-06-23T15:41:47.431Z,101048
2017-06-23T15:44:15.633Z,101054
2017-06-23T15:46:44.587Z,101048
2017-06-23T15:49:12.775Z,101046
2017-06-23T15:51:41.014Z,101044
2017-06-23T15:54:09.199Z,101056
2017-06-23T15:56:37.376Z,101065
2017-06-23T15:59:05.571Z,101067
2017-06-23T16:01:33.741Z,101073
2017-06-23T16:04:01.929Z,101068
2017-06-23T16:06:30.151Z,101061
2017-06-23T16:08:58.348Z,101068
2017-06-23T16:11:26.528Z,101078
2017-06-23T16:13:54.771Z,101076
2017-06-23T16:16:22.971Z,101093
2017-06-23T16:18:51.182Z,101088
2017-06-23T16:21:19.430Z,101093
2017-06-23T16:23:47.632Z,101081
2017-06-23T16:26:15.863Z,101101
2017-06-23T16:28:44.103Z,101089
2017-06-23T16:31:13.072Z,101101
2017-06-23T16:33:41.265Z,101102
2017-06-23T16:36:09.461Z,101101
2017-06-23T16:38:37.641Z,101099
2017-06-23T16:41:05.817Z,101111
2017-06-23T16:43:34.016Z,101101
2017-06-23T16:46:02.209Z,101105
2017-06-23T16:48:30.385Z,101110
2017-06-23T16:50:58.608Z,101108
2017-06-23T16:53:27.537Z,101105
2017-06-23T16:55:55.740Z,101103
2017-06-23T16:58:23.968Z,101106
2017-06-23T17:00:52.161Z,101100
2017-06-23T17:03:20.340Z,101094
2017-06-23T17:05:48.560Z,101093
2017-06-23T17:08:17.512Z,101095
2017-06-23T17:10:45.679Z,101099
2017-06-23T17:13:13.903Z,101105
2017-06-23T17:15:42.856Z,101114
2017-06-23T17:18:11.049Z,101108
2017-06-23T17:20:39.262Z,101105
2017-06-23T17:23:08.215Z,101102
2017-06-23T17:25:36.392Z,101113
2017-06-23T17:28:04.609Z,101116
2017-06-23T17:30:32.791Z,101115
2017-06-23T17:33:00.995Z,101119
2017-06-23T17:35:29.215Z,101133
2017-06-23T17:37:58.161Z,101128
2017-06-23T17:40:26.350Z,101118
2017-06-23T17:42:54.553Z,101115
2017-06-23T17:45:22.748Z,101114
2017-06-23T17:47:50.970Z,101117
2017-06-23T17:50:19.577Z,101109
2017-06-23T17:52:47.807Z,101110
2017-06-23T17:55:16.003Z,101100
2017-06-23T17:57:44.226Z,101107
2017-06-23T18:00:13.195Z,101110
2017-06-23T18:02:41.368Z,101110
2017-06-23T18:05:09.589Z,101109
2017-06-23T18:07:37.771Z,101115
2017-06-23T18:10:05.944Z,101121
2017-06-23T18:12:34.170Z,101119
2017-06-23T18:15:03.129Z,101113
2017-06-23T18:17:31.321Z,101126
2017-06-23T18:19:59.567Z,101135
2017-06-23T18:22:27.759Z,101132
2017-06-23T18:24:55.952Z,101134
2017-06-23T18:27:24.162Z,101137
2017-06-23T18:29:52.364Z,101132
2017-06-23T18:32:20.561Z,101147
2017-06-23T18:34:48.787Z,101146
2017-06-23T18:37:16.985Z,101150
2017-06-23T18:39:45.214Z,101143
2017-06-23T18:42:14.196Z,101147
2017-06-23T18:44:42.393Z,101150
2017-06-23T18:47:11.337Z,101154
2017-06-23T18:49:39.577Z,101149
2017-06-23T18:52:07.748Z,101153
2017-06-23T18:54:35.936Z,101141
2017-06-23T18:57:04.182Z,101163
2017-06-23T18:59:33.143Z,101162
2017-06-23T19:02:01.321Z,101161
2017-06-23T19:04:29.529Z,101164
2017-06-23T19:06:58.502Z,101164
2017-06-23T19:09:26.734Z,101158
2017-06-23T19:11:55.068Z,101169
2017-06-23T19:14:24.039Z,101164
2017-06-23T19:16:52.983Z,101184
2017-06-23T19:19:21.227Z,101183
2017-06-23T19:21:50.203Z,101188
2017-06-23T19:24:18.411Z,101174
2017-06-23T19:26:46.650Z,101187
2017-06-23T19:29:14.859Z,101185
2017-06-23T19:31:43.805Z,101181
2017-06-23T19:34:12.042Z,101172
2017-06-23T19:36:40.236Z,101181
2017-06-23T19:39:08.436Z,101183
2017-06-23T19:41:36.705Z,101175
2017-06-23T19:44:04.901Z,101178
2017-06-23T19:46:33.097Z,101180
2017-06-23T19:49:02.084Z,101176
2017-06-23T19:51:30.276Z,101174
2017-06-23T19:53:59.255Z,101171
2017-06-23T19:56:27.503Z,101164
2017-06-23T19:58:55.696Z,101167
2017-06-23T20:01:23.910Z,101171
2017-06-23T20:03:52.150Z,101166
2017-06-23T20:06:20.400Z,101167
2017-06-23T20:08:48.579Z,101164
2017-06-23T20:11:16.814Z,101164
2017-06-23T20:13:45.023Z,101164
2017-06-23T20:16:13.242Z,101164
2017-06-23T20:18:42.253Z,101169
2017-06-23T20:21:10.448Z,101160
2017-06-23T20:23:38.624Z,101156
2017-06-23T20:26:06.851Z,101152
2017-06-23T20:28:35.810Z,101150
2017-06-23T20:31:03.990Z,101151
2017-06-23T20:33:33.007Z,101154
2017-06-23T20:36:01.189Z,101150
2017-06-23T20:38:29.402Z,101141
2017-06-23T20:40:57.616Z,101134
2017-06-23T20:43:26.561Z,101137
2017-06-23T20:45:54.759Z,101134
2017-06-23T20:48:22.962Z,101133
2017-06-23T20:50:51.942Z,101131
2017-06-23T20:53:20.906Z,101126
2017-06-23T20:55:49.163Z,101131
2017-06-23T20:58:17.363Z,101130
2017-06-23T21:00:45.536Z,101123
2017-06-23T21:03:13.766Z,101127
2017-06-23T21:05:41.964Z,101114
2017-06-23T21:08:10.185Z,101123
2017-06-23T21:10:38.413Z,101126
2017-06-23T21:13:06.581Z,101127
2017-06-23T21:15:34.808Z,101111
2017-06-23T21:18:03.035Z,101122
2017-06-23T21:20:31.205Z,101114
2017-06-23T21:22:59.423Z,101108
2017-06-23T21:25:28.649Z,101111
2017-06-23T21:27:56.841Z,101106
2017-06-23T21:30:25.048Z,101115
2017-06-23T21:32:53.278Z,101101
2017-06-23T21:35:22.238Z,101101
2017-06-23T21:37:50.429Z,101102
2017-06-23T21:40:36.732Z,101110
2017-06-23T21:43:04.936Z,101110
2017-06-23T21:45:33.113Z,101123
2017-06-23T21:48:01.370Z,101124
2017-06-23T21:50:30.333Z,101121
2017-06-23T21:52:58.536Z,101113
2017-06-23T21:55:26.739Z,101117
2017-06-23T21:57:54.949Z,101120
2017-06-23T22:00:23.139Z,101116
2017-06-23T22:02:51.353Z,101112
2017-06-23T22:05:20.318Z,101114
2017-06-23T22:07:48.522Z,101122
2017-06-23T22:10:17.496Z,101123
2017-06-23T22:12:45.720Z,101122
2017-06-23T22:15:13.928Z,101124
2017-06-23T22:17:42.147Z,101127
2017-06-23T22:20:10.347Z,101124
2017-06-23T22:22:38.559Z,101128
2017-06-23T22:25:06.786Z,101128
2017-06-23T22:27:34.983Z,101120
2017-06-23T22:30:03.162Z,101130
2017-06-23T22:32:31.400Z,101127
2017-06-23T22:35:00.374Z,101127
2017-06-23T22:37:29.322Z,101136
2017-06-23T22:39:57.542Z,101130
2017-06-23T22:42:26.569Z,101132
2017-06-23T22:44:54.745Z,101135
2017-06-23T22:47:22.982Z,101128
2017-06-23T22:49:51.156Z,101129
2017-06-23T22:52:19.333Z,101125
2017-06-23T22:54:47.561Z,101121
2017-06-23T22:57:15.769Z,101129
2017-06-23T22:59:43.967Z,101108
2017-06-23T23:02:12.198Z,101110
2017-06-23T23:04:40.374Z,101110
2017-06-23T23:07:08.566Z,101116
2017-06-23T23:09:36.794Z,101111
2017-06-23T23:12:04.994Z,101107
2017-06-23T23:14:33.169Z,101104
2017-06-23T23:17:01.403Z,101110
2017-06-23T23:19:30.347Z,101102
2017-06-23T23:21:58.520Z,101104
2017-06-23T23:24:26.735Z,101094
2017-06-23T23:26:55.683Z,101096
2017-06-23T23:29:23.876Z,101092
2017-06-23T23:31:52.127Z,101104
2017-06-23T23:34:20.301Z,101108
2017-06-23T23:36:48.509Z,101102
2017-06-23T23:39:16.730Z,101100
2017-06-23T23:41:44.937Z,101103
2017-06-23T23:44:13.148Z,101094
2017-06-23T23:46:41.388Z,101084
2017-06-23T23:49:09.598Z,101090
2017-06-23T23:51:37.777Z,101087
2017-06-23T23:54:05.991Z,101088
2017-06-23T23:56:34.185Z,101088
2017-06-23T23:59:02.384Z,101092
